createdAt,value
2018-03-06T00:01:52.174Z,71.07
2018-03-06T00:04:20.324Z,81.17
2018-03-06T00:06:48.444Z,82.20
2018-03-06T00:09:16.581Z,79.80
2018-03-06T00:11:44.713Z,87.07
2018-03-06T00:14:13.629Z,79.30
2018-03-06T00:16:41.759Z,74.15
2018-03-06T00:19:10.668Z,76.43
2018-03-06T00:21:39.559Z,79.82
2018-03-06T00:24:08.540Z,80.80
2018-03-06T00:26:37.506Z,81.57
2018-03-06T00:29:05.709Z,78.15
2018-03-06T00:31:34.712Z,76.80
2018-03-06T00:34:02.845Z,78.10
2018-03-06T00:36:31.043Z,70.20
2018-03-06T00:39:00.046Z,83.18
2018-03-06T00:41:28.212Z,85.68
2018-03-06T00:43:57.126Z,77.97
2018-03-06T00:46:25.257Z,86.47
2018-03-06T00:48:54.167Z,79.70
2018-03-06T00:51:22.293Z,79.47
2018-03-06T00:53:50.427Z,82.35
2018-03-06T00:56:18.560Z,84.75
2018-03-06T00:58:47.456Z,74.37
2018-03-06T01:01:16.384Z,83.97
2018-03-06T01:03:44.537Z,83.80
2018-03-06T01:06:12.683Z,73.47
2018-03-06T01:08:40.868Z,84.07
2018-03-06T01:11:09.017Z,71.65
2018-03-06T01:13:37.237Z,74.10
2018-03-06T01:16:05.376Z,84.97
2018-03-06T01:18:34.284Z,78.73
2018-03-06T01:21:02.407Z,70.03
2018-03-06T01:23:30.659Z,81.90
2018-03-06T01:25:58.801Z,80.03
2018-03-06T01:28:26.933Z,76.37
2018-03-06T01:30:55.834Z,85.87
2018-03-06T01:33:23.968Z,72.03
2018-03-06T01:35:52.259Z,84.37
2018-03-06T01:38:20.407Z,73.75
2018-03-06T01:40:48.553Z,82.22
2018-03-06T01:43:16.684Z,84.95
2018-03-06T01:45:44.816Z,90.90
2018-03-06T01:48:12.962Z,82.67
2018-03-06T01:50:41.958Z,82.30
2018-03-06T01:53:10.854Z,85.32
2018-03-06T01:55:39.199Z,85.80
2018-03-06T01:58:07.404Z,73.62
2018-03-06T02:00:35.540Z,77.12
2018-03-06T02:03:04.461Z,80.93
2018-03-06T02:05:32.604Z,82.47
2018-03-06T02:08:01.489Z,82.25
2018-03-06T02:10:30.394Z,82.72
2018-03-06T02:12:59.274Z,91.18
2018-03-06T02:15:28.165Z,89.97
2018-03-06T02:17:57.047Z,87.70
2018-03-06T02:20:25.962Z,87.62
2018-03-06T02:22:54.938Z,78.47
2018-03-06T02:25:23.820Z,79.05
2018-03-06T02:27:52.724Z,80.53
2018-03-06T02:30:21.616Z,82.20
2018-03-06T02:32:50.526Z,83.33
2018-03-06T02:35:18.647Z,85.10
2018-03-06T02:37:46.781Z,75.60
2018-03-06T02:40:14.949Z,79.60
2018-03-06T02:42:43.077Z,78.35
2018-03-06T02:45:11.213Z,92.15
2018-03-06T02:47:39.340Z,82.63
2018-03-06T02:50:07.469Z,82.97
2018-03-06T02:52:35.673Z,82.37
2018-03-06T02:55:03.838Z,81.68
2018-03-06T02:57:32.732Z,82.82
2018-03-06T03:00:01.637Z,81.10
2018-03-06T03:02:29.793Z,83.23
2018-03-06T03:04:58.786Z,87.28
2018-03-06T03:07:27.670Z,85.07
2018-03-06T03:09:56.577Z,80.70
2018-03-06T03:12:24.720Z,90.45
2018-03-06T03:14:53.736Z,80.62
2018-03-06T03:17:22.636Z,82.70
2018-03-06T03:19:50.772Z,90.85
2018-03-06T03:22:19.689Z,80.70
2018-03-06T03:24:48.681Z,84.28
2018-03-06T03:27:16.805Z,94.00
2018-03-06T03:29:44.933Z,80.97
2018-03-06T03:32:13.073Z,78.97
2018-03-06T03:34:41.968Z,75.35
2018-03-06T03:37:10.984Z,85.78
2018-03-06T03:39:39.133Z,80.18
2018-03-06T03:42:08.149Z,79.53
2018-03-06T03:44:36.259Z,91.85
2018-03-06T03:47:04.400Z,86.68
2018-03-06T03:49:32.540Z,84.07
2018-03-06T03:52:01.458Z,85.30
2018-03-06T03:54:29.599Z,91.32
2018-03-06T03:56:58.528Z,93.78
2018-03-06T03:59:26.691Z,73.95
2018-03-06T04:01:55.556Z,82.75
2018-03-06T04:04:23.728Z,87.43
2018-03-06T04:06:51.844Z,83.45
2018-03-06T04:09:20.914Z,83.53
2018-03-06T04:11:49.044Z,91.22
2018-03-06T04:14:17.228Z,98.68
2018-03-06T04:16:46.131Z,81.20
2018-03-06T04:19:15.120Z,84.30
2018-03-06T04:21:44.009Z,85.70
2018-03-06T04:24:12.912Z,79.25
2018-03-06T04:26:41.053Z,81.30
2018-03-06T04:29:09.952Z,82.90
2018-03-06T04:31:38.861Z,83.45
2018-03-06T04:34:06.980Z,92.10
2018-03-06T04:36:35.177Z,88.40
2018-03-06T04:39:04.076Z,85.07
2018-03-06T04:41:33.025Z,88.20
2018-03-06T04:44:01.150Z,77.97
2018-03-06T04:46:29.267Z,89.13
2018-03-06T04:48:57.412Z,90.03
2018-03-06T04:51:25.542Z,77.78
2018-03-06T04:53:54.441Z,79.28
2018-03-06T04:56:23.309Z,88.00
2018-03-06T04:58:51.505Z,88.03
2018-03-06T05:01:19.657Z,95.28
2018-03-06T05:03:48.583Z,85.00
2018-03-06T05:06:16.897Z,88.25
2018-03-06T05:08:45.116Z,91.20
2018-03-06T05:11:13.253Z,87.60
2018-03-06T05:13:41.390Z,88.97
2018-03-06T05:16:09.525Z,97.32
2018-03-06T05:18:38.508Z,89.87
2018-03-06T05:21:07.421Z,96.78
2018-03-06T05:23:35.548Z,87.18
2018-03-06T05:26:05.194Z,104.72
2018-03-06T05:28:34.129Z,86.35
2018-03-06T05:31:02.236Z,84.05
2018-03-06T05:33:31.158Z,83.43
2018-03-06T05:35:59.302Z,93.70
2018-03-06T05:38:28.252Z,81.35
2018-03-06T05:40:56.385Z,91.15
2018-03-06T05:43:25.354Z,86.15
2018-03-06T05:45:54.274Z,96.35
2018-03-06T05:48:22.409Z,93.75
2018-03-06T05:50:50.541Z,90.50
2018-03-06T05:53:18.656Z,103.25
2018-03-06T05:55:47.580Z,91.15
2018-03-06T05:58:15.717Z,98.78
2018-03-06T06:00:44.714Z,100.25
2018-03-06T06:03:13.730Z,91.40
2018-03-06T06:05:42.107Z,97.93
2018-03-06T06:08:10.249Z,104.43
2018-03-06T06:10:39.168Z,84.13
2018-03-06T06:13:07.328Z,91.93
2018-03-06T06:15:35.461Z,93.57
2018-03-06T06:18:03.621Z,102.20
2018-03-06T06:20:31.828Z,101.18
2018-03-06T06:23:00.736Z,84.45
2018-03-06T06:25:28.896Z,94.87
2018-03-06T06:27:57.801Z,94.68
2018-03-06T06:30:25.926Z,92.60
2018-03-06T06:32:54.092Z,92.20
2018-03-06T06:35:22.202Z,105.63
2018-03-06T06:37:51.096Z,101.43
2018-03-06T06:40:19.225Z,98.15
2018-03-06T06:42:47.423Z,95.00
2018-03-06T06:45:15.500Z,99.95
2018-03-06T06:47:44.450Z,98.40
2018-03-06T06:50:12.684Z,88.85
2018-03-06T06:52:40.860Z,82.03
2018-03-06T06:55:09.014Z,99.97
2018-03-06T06:57:37.907Z,87.03
2018-03-06T07:00:06.810Z,94.53
2018-03-06T07:02:34.953Z,95.20
2018-03-06T07:05:03.849Z,97.60
2018-03-06T07:07:32.852Z,97.05
2018-03-06T07:10:01.742Z,92.85
2018-03-06T07:12:29.920Z,106.57
2018-03-06T07:14:58.052Z,109.00
2018-03-06T07:17:26.203Z,97.63
2018-03-06T07:19:54.330Z,103.57
2018-03-06T07:22:22.472Z,108.65
2018-03-06T07:24:51.482Z,101.97
2018-03-06T07:27:20.469Z,99.65
2018-03-06T07:29:49.394Z,101.60
2018-03-06T07:32:17.536Z,109.05
2018-03-06T07:34:46.428Z,115.32
2018-03-06T07:37:15.432Z,109.57
2018-03-06T07:39:43.561Z,114.90
2018-03-06T07:42:11.795Z,98.50
2018-03-06T07:44:39.926Z,109.18
2018-03-06T07:47:08.853Z,104.72
2018-03-06T07:49:36.997Z,105.53
2018-03-06T07:52:05.913Z,102.97
2018-03-06T07:54:34.098Z,108.12
2018-03-06T07:57:02.224Z,104.15
2018-03-06T07:59:31.221Z,105.97
2018-03-06T08:02:00.148Z,99.95
2018-03-06T08:04:28.262Z,111.05
2018-03-06T08:06:57.183Z,104.70
2018-03-06T08:09:25.300Z,116.03
2018-03-06T08:11:53.551Z,115.32
2018-03-06T08:14:21.670Z,98.57
2018-03-06T08:16:49.799Z,104.85
2018-03-06T08:19:17.936Z,111.63
2018-03-06T08:21:46.130Z,106.82
2018-03-06T08:24:14.281Z,105.32
2018-03-06T08:26:42.564Z,107.87
2018-03-06T08:29:10.681Z,116.55
2018-03-06T08:31:38.839Z,125.72
2018-03-06T08:34:07.094Z,123.63
2018-03-06T08:36:35.236Z,118.45
2018-03-06T08:39:04.118Z,112.72
2018-03-06T08:41:33.049Z,108.95
2018-03-06T08:44:01.180Z,108.97
2018-03-06T08:46:30.084Z,110.68
2018-03-06T08:48:59.072Z,98.90
2018-03-06T08:51:27.253Z,100.45
2018-03-06T08:53:55.417Z,113.37
2018-03-06T08:56:23.565Z,114.15
2018-03-06T08:58:51.784Z,102.93
2018-03-06T09:01:20.694Z,114.28
2018-03-06T09:03:48.822Z,121.32
2018-03-06T09:06:16.964Z,106.87
2018-03-06T09:08:45.865Z,127.30
2018-03-06T09:11:14.879Z,120.82
2018-03-06T09:13:43.068Z,111.55
2018-03-06T09:16:11.197Z,100.50
2018-03-06T09:18:40.840Z,110.73
2018-03-06T09:21:08.979Z,110.63
2018-03-06T09:23:37.901Z,112.20
2018-03-06T09:26:06.076Z,126.78
2018-03-06T09:28:34.242Z,112.07
2018-03-06T09:31:02.394Z,110.97
2018-03-06T09:33:30.548Z,108.60
2018-03-06T09:35:58.694Z,112.50
2018-03-06T09:38:26.845Z,114.55
2018-03-06T09:40:55.076Z,132.15
2018-03-06T09:43:23.278Z,120.37
2018-03-06T09:45:51.453Z,118.78
2018-03-06T09:48:19.592Z,123.67
2018-03-06T09:50:47.743Z,122.32
2018-03-06T09:53:15.872Z,116.05
2018-03-06T09:55:44.012Z,120.72
2018-03-06T09:58:12.154Z,124.43
2018-03-06T10:00:40.384Z,130.60
2018-03-06T10:03:08.520Z,122.60
2018-03-06T10:05:36.743Z,117.82
2018-03-06T10:08:05.008Z,119.70
2018-03-06T10:10:33.889Z,130.95
2018-03-06T10:13:02.043Z,126.03
2018-03-06T10:15:30.934Z,125.00
2018-03-06T10:17:59.845Z,115.47
2018-03-06T10:20:28.028Z,111.30
2018-03-06T10:22:56.160Z,105.82
2018-03-06T10:25:25.074Z,104.32
2018-03-06T10:27:53.258Z,106.18
2018-03-06T10:30:21.493Z,120.00
2018-03-06T10:32:49.635Z,130.10
2018-03-06T10:35:17.813Z,120.70
2018-03-06T10:37:45.980Z,121.95
2018-03-06T10:40:14.090Z,124.45
2018-03-06T10:42:43.008Z,119.97
2018-03-06T10:45:11.169Z,112.75
2018-03-06T10:47:39.331Z,122.37
2018-03-06T10:50:08.268Z,124.75
2018-03-06T10:52:36.401Z,123.13
2018-03-06T10:55:05.336Z,113.47
2018-03-06T10:57:33.470Z,121.45
2018-03-06T11:00:01.634Z,119.37
2018-03-06T11:02:31.549Z,120.90
2018-03-06T11:04:59.728Z,126.70
2018-03-06T11:07:27.901Z,129.12
2018-03-06T11:09:56.047Z,127.70
2018-03-06T11:12:24.967Z,120.20
2018-03-06T11:14:53.103Z,117.22
2018-03-06T11:17:22.117Z,122.20
2018-03-06T11:19:51.131Z,128.43
2018-03-06T11:22:19.288Z,130.60
2018-03-06T11:24:47.432Z,124.35
2018-03-06T11:27:16.460Z,127.93
2018-03-06T11:29:44.605Z,129.02
2018-03-06T11:32:13.528Z,126.90
2018-03-06T11:34:41.800Z,129.85
2018-03-06T11:37:09.959Z,120.50
2018-03-06T11:39:38.900Z,139.12
2018-03-06T11:42:07.042Z,126.30
2018-03-06T11:44:35.182Z,128.15
2018-03-06T11:47:03.380Z,137.95
2018-03-06T11:49:31.550Z,130.73
2018-03-06T11:51:59.694Z,135.43
2018-03-06T11:54:27.857Z,138.02
2018-03-06T11:56:56.030Z,135.48
2018-03-06T11:59:24.187Z,122.13
2018-03-06T12:01:52.435Z,124.28
2018-03-06T12:04:20.686Z,130.67
2018-03-06T12:06:48.854Z,136.18
2018-03-06T12:09:17.026Z,130.45
2018-03-06T12:11:45.206Z,126.45
2018-03-06T12:14:13.397Z,129.68
2018-03-06T12:16:41.538Z,137.55
2018-03-06T12:19:09.694Z,136.17
2018-03-06T12:21:38.644Z,143.40
2018-03-06T12:24:06.815Z,133.82
2018-03-06T12:26:34.947Z,149.12
2018-03-06T12:29:03.086Z,138.73
2018-03-06T12:31:31.382Z,131.10
2018-03-06T12:34:00.311Z,147.23
2018-03-06T12:36:28.461Z,140.40
2018-03-06T12:38:56.630Z,133.90
2018-03-06T12:41:24.801Z,147.40
2018-03-06T12:43:53.676Z,156.95
2018-03-06T12:46:22.599Z,131.18
2018-03-06T12:48:50.758Z,151.80
2018-03-06T12:51:18.893Z,140.25
2018-03-06T12:53:48.556Z,139.27
2018-03-06T12:56:16.809Z,137.30
2018-03-06T12:58:45.784Z,134.80
2018-03-06T13:01:13.913Z,157.35
2018-03-06T13:03:42.135Z,129.77
2018-03-06T13:06:10.314Z,133.85
2018-03-06T13:08:38.441Z,125.85
2018-03-06T13:11:06.598Z,142.57
2018-03-06T13:13:34.744Z,140.73
2018-03-06T13:16:02.894Z,134.37
2018-03-06T13:18:31.058Z,131.25
2018-03-06T13:20:59.955Z,123.85
2018-03-06T13:23:28.101Z,131.75
2018-03-06T13:25:56.224Z,119.35
2018-03-06T13:28:24.394Z,154.95
2018-03-06T13:30:52.518Z,120.47
2018-03-06T13:33:21.442Z,129.43
2018-03-06T13:35:49.599Z,128.80
2018-03-06T13:38:18.501Z,137.00
2018-03-06T13:40:46.649Z,128.23
2018-03-06T13:43:15.556Z,134.80
2018-03-06T13:45:43.719Z,144.85
2018-03-06T13:48:12.702Z,136.47
2018-03-06T13:50:41.631Z,127.03
2018-03-06T13:53:09.789Z,136.77
2018-03-06T13:55:37.987Z,116.35
2018-03-06T13:58:06.246Z,133.73
2018-03-06T14:00:34.381Z,128.65
2018-03-06T14:03:03.302Z,122.70
2018-03-06T14:05:31.447Z,132.57
2018-03-06T14:08:00.372Z,131.55
2018-03-06T14:10:28.524Z,124.18
2018-03-06T14:12:56.692Z,128.25
2018-03-06T14:15:24.833Z,132.35
2018-03-06T14:17:52.980Z,124.40
2018-03-06T14:20:21.132Z,125.55
2018-03-06T14:22:49.261Z,129.48
2018-03-06T14:25:18.191Z,117.03
2018-03-06T14:27:46.366Z,126.85
2018-03-06T14:30:14.540Z,126.05
2018-03-06T14:32:42.679Z,134.37
2018-03-06T14:35:11.663Z,120.62
2018-03-06T14:37:39.860Z,123.90
2018-03-06T14:40:08.015Z,120.93
2018-03-06T14:42:36.908Z,129.05
2018-03-06T14:45:05.089Z,118.95
2018-03-06T14:47:33.251Z,117.13
2018-03-06T14:50:02.326Z,135.20
2018-03-06T14:52:31.233Z,113.82
2018-03-06T14:54:59.399Z,118.03
2018-03-06T14:57:28.313Z,121.35
2018-03-06T14:59:56.444Z,119.60
2018-03-06T15:02:25.370Z,117.90
2018-03-06T15:04:53.541Z,125.30
2018-03-06T15:07:21.665Z,119.72
2018-03-06T15:09:49.799Z,113.40
2018-03-06T15:12:17.951Z,115.32
2018-03-06T15:14:46.088Z,116.47
2018-03-06T15:17:15.101Z,118.37
2018-03-06T15:19:44.220Z,127.70
2018-03-06T15:22:12.344Z,117.75
2018-03-06T15:24:41.241Z,130.32
2018-03-06T15:27:10.170Z,119.55
2018-03-06T15:29:38.314Z,128.23
2018-03-06T15:32:07.244Z,125.15
2018-03-06T15:34:35.406Z,120.78
2018-03-06T15:37:03.533Z,128.95
2018-03-06T15:39:31.702Z,118.75
2018-03-06T15:41:59.840Z,121.20
2018-03-06T15:44:28.002Z,112.55
2018-03-06T15:46:56.137Z,113.97
2018-03-06T15:49:25.059Z,120.03
2018-03-06T15:51:53.197Z,125.70
2018-03-06T15:54:22.120Z,121.45
2018-03-06T15:56:50.273Z,117.20
2018-03-06T15:59:18.478Z,116.45
2018-03-06T16:01:46.647Z,118.80
2018-03-06T16:04:14.797Z,125.27
2018-03-06T16:06:43.004Z,131.23
2018-03-06T16:09:11.126Z,117.45
2018-03-06T16:11:39.310Z,115.03
2018-03-06T16:14:07.447Z,120.53
2018-03-06T16:16:35.787Z,130.85
2018-03-06T16:19:03.933Z,124.17
2018-03-06T16:21:32.073Z,144.62
2018-03-06T16:24:00.993Z,121.87
2018-03-06T16:26:29.141Z,111.45
2018-03-06T16:28:57.271Z,127.43
2018-03-06T16:31:25.403Z,127.40
2018-03-06T16:33:53.595Z,124.27
2018-03-06T16:36:21.800Z,121.57
2018-03-06T16:38:49.963Z,119.62
2018-03-06T16:41:18.108Z,118.30
2018-03-06T16:43:46.273Z,132.70
2018-03-06T16:46:14.440Z,121.80
2018-03-06T16:48:42.712Z,134.87
2018-03-06T16:51:10.845Z,123.90
2018-03-06T16:53:39.040Z,121.05
2018-03-06T16:56:07.937Z,124.72
2018-03-06T16:58:36.125Z,115.15
2018-03-06T17:01:04.281Z,123.32
2018-03-06T17:03:33.214Z,129.95
2018-03-06T17:06:01.388Z,112.78
2018-03-06T17:08:29.513Z,120.93
2018-03-06T17:10:58.460Z,111.12
2018-03-06T17:13:26.630Z,121.93
2018-03-06T17:15:54.798Z,117.22
2018-03-06T17:18:22.928Z,110.80
2018-03-06T17:20:51.074Z,120.25
2018-03-06T17:23:20.051Z,114.03
2018-03-06T17:25:48.282Z,121.72
2018-03-06T17:28:16.404Z,114.70
2018-03-06T17:30:45.428Z,140.95
2018-03-06T17:33:13.557Z,127.17
2018-03-06T17:35:41.986Z,107.63
2018-03-06T17:38:10.126Z,118.43
2018-03-06T17:40:39.054Z,116.70
2018-03-06T17:43:07.325Z,119.28
2018-03-06T17:45:35.502Z,107.80
2018-03-06T17:48:03.642Z,113.23
2018-03-06T17:50:33.456Z,114.05
2018-03-06T17:53:01.769Z,122.82
2018-03-06T17:55:29.952Z,114.78
2018-03-06T17:57:58.113Z,115.57
2018-03-06T18:00:26.323Z,115.72
2018-03-06T18:02:55.248Z,104.57
2018-03-06T18:05:24.183Z,114.07
2018-03-06T18:07:52.431Z,110.55
2018-03-06T18:10:20.595Z,97.82
2018-03-06T18:12:48.750Z,124.72
2018-03-06T18:15:17.694Z,108.57
2018-03-06T18:17:45.871Z,108.07
2018-03-06T18:20:14.065Z,107.95
2018-03-06T18:22:42.231Z,109.05
2018-03-06T18:25:10.428Z,109.65
2018-03-06T18:27:39.367Z,119.22
2018-03-06T18:30:07.558Z,110.20
2018-03-06T18:32:35.726Z,106.30
2018-03-06T18:35:03.979Z,118.62
2018-03-06T18:37:32.275Z,126.57
2018-03-06T18:40:00.513Z,123.10
2018-03-06T18:42:28.683Z,106.97
2018-03-06T18:44:56.811Z,107.82
2018-03-06T18:47:25.724Z,110.43
2018-03-06T18:50:01.737Z,109.75
2018-03-06T18:52:30.057Z,113.90
2018-03-06T18:54:58.246Z,124.57
2018-03-06T18:57:26.379Z,114.47
2018-03-06T19:03:10.589Z,103.90
2018-03-06T19:05:50.688Z,111.82
2018-03-06T19:08:18.859Z,91.15
2018-03-06T19:10:47.022Z,97.45
2018-03-06T19:13:15.162Z,77.78
2018-03-06T19:15:43.292Z,92.93
2018-03-06T19:18:12.208Z,85.38
2018-03-06T19:20:40.358Z,79.57
2018-03-06T19:23:09.353Z,83.47
2018-03-06T19:25:37.688Z,79.10
2018-03-06T19:28:05.874Z,82.60
2018-03-06T19:30:34.015Z,75.55
2018-03-06T19:33:02.183Z,75.07
2018-03-06T19:35:30.357Z,76.22
2018-03-06T19:37:58.614Z,79.87
2018-03-06T19:40:26.766Z,72.78
2018-03-06T19:42:55.817Z,76.10
2018-03-06T19:45:24.090Z,72.43
2018-03-06T19:47:52.246Z,72.50
2018-03-06T19:50:20.450Z,72.85
2018-03-06T19:52:48.658Z,70.07
2018-03-06T19:55:16.775Z,70.40
2018-03-06T19:57:46.740Z,74.10
2018-03-06T20:00:14.900Z,75.47
2018-03-06T20:02:44.440Z,69.30
2018-03-06T20:05:12.649Z,81.40
2018-03-06T20:07:40.816Z,67.75
2018-03-06T20:10:09.906Z,64.20
2018-03-06T20:12:38.084Z,74.25
2018-03-06T20:15:11.850Z,67.85
2018-03-06T20:17:40.060Z,75.57
2018-03-06T20:20:08.295Z,75.07
2018-03-06T20:22:36.631Z,79.68
2018-03-06T20:25:11.255Z,88.78
2018-03-06T20:27:39.405Z,85.30
2018-03-06T20:30:07.549Z,78.10
2018-03-06T20:32:41.352Z,80.27
2018-03-06T20:35:09.502Z,77.72
2018-03-06T20:37:37.718Z,85.85
2018-03-06T20:40:11.404Z,78.57
2018-03-06T20:42:39.597Z,80.90
2018-03-06T20:45:08.045Z,76.55
2018-03-06T20:47:36.179Z,77.67
2018-03-06T20:50:05.103Z,79.70
2018-03-06T20:52:39.009Z,66.45
2018-03-06T20:55:13.699Z,77.45
2018-03-06T20:57:42.605Z,74.03
2018-03-06T21:00:11.575Z,76.10
2018-03-06T21:02:39.732Z,62.90
2018-03-06T21:05:07.956Z,61.95
2018-03-06T21:07:36.085Z,68.80
2018-03-06T21:10:04.267Z,54.40
2018-03-06T21:12:32.430Z,60.33
2018-03-06T21:15:00.543Z,55.53
2018-03-06T21:17:28.735Z,55.97
2018-03-06T21:19:57.009Z,57.75
2018-03-06T21:22:25.140Z,57.15
2018-03-06T21:24:53.331Z,57.50
2018-03-06T21:27:22.268Z,50.33
2018-03-06T21:29:50.418Z,58.00
2018-03-06T21:32:18.550Z,57.60
2018-03-06T21:34:46.744Z,57.85
2018-03-06T21:37:14.961Z,51.55
2018-03-06T21:39:43.122Z,51.97
2018-03-06T21:42:11.264Z,56.35
2018-03-06T21:44:39.514Z,56.00
2018-03-06T21:47:08.437Z,56.92
2018-03-06T21:49:36.567Z,60.28
2018-03-06T21:52:05.493Z,55.97
2018-03-06T21:54:33.638Z,62.20
2018-03-06T21:57:01.798Z,52.17
2018-03-06T21:59:30.728Z,56.75
2018-03-06T22:02:00.427Z,48.63
2018-03-06T22:04:28.545Z,55.45
2018-03-06T22:06:56.882Z,55.90
2018-03-06T22:09:25.010Z,51.70
2018-03-06T22:11:53.909Z,49.20
2018-03-06T22:14:22.841Z,65.28
2018-03-06T22:16:50.974Z,48.03
2018-03-06T22:19:19.869Z,55.00
2018-03-06T22:21:48.038Z,50.97
2018-03-06T22:24:16.217Z,47.65
2018-03-06T22:26:44.383Z,44.60
2018-03-06T22:29:12.514Z,48.67
2018-03-06T22:31:40.692Z,43.97
2018-03-06T22:34:08.878Z,45.42
2018-03-06T22:36:37.894Z,56.05
2018-03-06T22:39:06.053Z,57.72
2018-03-06T22:41:35.003Z,48.20
2018-03-06T22:44:03.141Z,48.00
2018-03-06T22:46:31.284Z,44.25
2018-03-06T22:49:00.195Z,45.27
2018-03-06T22:51:28.352Z,47.83
2018-03-06T22:53:56.551Z,51.17
2018-03-06T22:56:24.653Z,45.50
2018-03-06T22:58:52.865Z,48.75
2018-03-06T23:01:21.758Z,42.30
2018-03-06T23:03:49.918Z,41.17
2018-03-06T23:06:18.931Z,43.58
2018-03-06T23:08:47.100Z,42.85
2018-03-06T23:11:15.997Z,39.83
2018-03-06T23:13:44.337Z,40.75
2018-03-06T23:16:12.483Z,45.80
2018-03-06T23:18:40.609Z,43.43
2018-03-06T23:21:08.788Z,36.88
2018-03-06T23:23:36.900Z,38.00
2018-03-06T23:26:05.069Z,40.45
2018-03-06T23:28:33.193Z,36.42
2018-03-06T23:31:02.144Z,36.85
2018-03-06T23:33:30.290Z,39.23
2018-03-06T23:35:58.425Z,37.03
2018-03-06T23:38:26.584Z,37.60
2018-03-06T23:40:55.609Z,37.25
2018-03-06T23:43:23.852Z,32.50
2018-03-06T23:45:52.761Z,36.65
2018-03-06T23:48:20.904Z,38.75
2018-03-06T23:50:50.540Z,38.20
2018-03-06T23:53:18.672Z,31.23
2018-03-06T23:55:46.826Z,33.00
2018-03-06T23:58:15.046Z,32.70
